Time;durP1;ratioP1;P1;durP2;ratioP2;P2;SDS_P1;SDS_P2;PMS_P1;PMS_P2;Temp;Humidity;BMP_temperature;BMP_pressure;BME280_temperature;BME280_humidity;BME280_pressure;Samples;Min_cycle;Max_cycle;Signal;HPM_P1;HPM_P2
2022/08/05 00:01:25;;;;;;;6.27;3.93;;;;;;;20.39;80.70;101279.91;5266748;28;20464;-76
2022/08/05 00:03:56;;;;;;;5.37;4.07;;;;;;;20.18;81.01;101280.88;5284814;28;20547;-76
2022/08/05 00:06:28;;;;;;;8.43;5.00;;;;;;;20.07;81.89;101285.81;5284523;28;20149;-76
2022/08/05 00:08:59;;;;;;;6.23;4.00;;;;;;;20.10;83.40;101283.03;5266168;28;20025;-76
2022/08/05 00:11:31;;;;;;;16.02;5.18;;;;;;;20.13;82.76;101286.38;5284325;28;20063;-75
2022/08/05 00:14:03;;;;;;;5.37;4.43;;;;;;;20.25;83.36;101282.31;5284233;28;20391;-76
2022/08/05 00:16:34;;;;;;;6.90;4.63;;;;;;;20.06;82.37;101292.00;5284008;28;20033;-76
2022/08/05 00:19:06;;;;;;;7.77;5.00;;;;;;;19.97;81.19;101294.13;5284237;28;20040;-75
2022/08/05 00:21:37;;;;;;;9.63;5.13;;;;;;;20.00;82.56;101301.09;5284343;28;20119;-76
2022/08/05 00:24:08;;;;;;;9.30;4.67;;;;;;;19.92;82.94;101295.28;5283586;28;20036;-76
2022/08/05 00:26:40;;;;;;;9.07;4.77;;;;;;;19.93;83.04;101295.22;5283948;28;20438;-76
2022/08/05 00:29:11;;;;;;;7.43;4.63;;;;;;;19.92;83.13;101290.84;5283897;28;20115;-76
2022/08/05 00:31:43;;;;;;;7.73;4.87;;;;;;;19.84;83.28;101290.31;5283682;28;20036;-76
2022/08/05 00:34:14;;;;;;;8.20;5.10;;;;;;;19.82;83.66;101297.47;5283814;28;20037;-76
2022/08/05 00:36:46;;;;;;;10.60;5.27;;;;;;;19.75;84.78;101301.25;5283925;28;20063;-75
2022/08/05 00:39:17;;;;;;;13.43;5.40;;;;;;;19.79;85.36;101301.09;5284243;28;20369;-75
2022/08/05 00:41:48;;;;;;;6.77;4.70;;;;;;;19.82;85.36;101303.63;5286860;28;20032;-75
2022/08/05 00:44:21;;;;;;;10.57;5.43;;;;;;;19.88;85.31;101304.28;5299271;28;20165;-75
2022/08/05 00:46:52;;;;;;;8.25;5.50;;;;;;;20.01;86.00;101297.50;5266927;28;20085;-76
2022/08/05 00:49:24;;;;;;;8.83;5.20;;;;;;;19.95;84.23;101292.50;5283579;28;20028;-76
2022/08/05 00:51:55;;;;;;;11.30;6.20;;;;;;;20.05;85.11;101285.88;5264990;28;20060;-75
2022/08/05 00:54:27;;;;;;;;;;;;;;;20.26;82.46;101275.25;5283962;28;20168;-76
2022/08/05 00:56:59;;;;;;;8.93;5.77;;;;;;;19.88;84.68;101280.47;5283232;28;19921;-75
2022/08/05 00:59:30;;;;;;;8.97;6.17;;;;;;;19.68;85.90;101293.59;5282601;28;20037;-76
2022/08/05 01:02:02;;;;;;;11.00;5.80;;;;;;;19.59;85.67;101290.47;5282372;28;20035;-76
2022/08/05 01:04:33;;;;;;;9.07;6.37;;;;;;;19.68;86.25;101293.59;5282816;28;20032;-76
2022/08/05 01:07:04;;;;;;;12.07;6.70;;;;;;;19.54;87.02;101297.75;5265034;28;20119;-76
2022/08/05 01:09:36;;;;;;;8.13;5.47;;;;;;;19.70;86.33;101290.88;5282944;28;20032;-76
2022/08/05 01:12:13;;;;;;;9.33;6.50;;;;;;;19.46;86.73;101311.28;5283056;28;20036;-76
2022/08/05 01:14:54;;;;;;;11.35;6.07;;;;;;;19.37;87.88;101317.84;5282710;28;20028;-75
2022/08/05 01:17:33;;;;;;;12.98;5.75;;;;;;;19.49;87.79;101329.66;5283065;28;20505;-76
2022/08/05 01:20:29;;;;;;;9.20;5.47;;;;;;;19.46;87.42;101348.31;5283822;28;20089;-76
2022/08/05 01:23:40;;;;;;;15.23;6.35;;;;;;;19.42;86.44;101371.38;5282954;28;20046;-75
2022/08/05 01:26:12;;;;;;;12.68;5.55;;;;;;;19.37;86.99;101375.09;5241538;28;20050;-77
2022/08/05 01:29:04;;;;;;;10.90;5.23;;;;;;;19.50;86.63;101376.34;5282898;28;20032;-76
2022/08/05 01:31:42;;;;;;;9.57;5.70;;;;;;;19.54;87.57;101374.44;5265171;28;20029;-77
2022/08/05 01:34:26;;;;;;;10.57;5.43;;;;;;;19.44;88.22;101358.09;5282465;28;20127;-76
2022/08/05 01:37:06;;;;;;;12.18;5.32;;;;;;;19.33;89.12;101347.94;5283097;28;20088;-77
2022/08/05 01:39:39;;;;;;;10.77;5.57;;;;;;;19.43;88.27;101344.03;5282926;28;20024;-76
2022/08/05 01:42:15;;;;;;;11.40;5.68;;;;;;;19.38;88.09;101351.25;5282341;28;20451;-76
2022/08/05 01:44:47;;;;;;;12.02;5.03;;;;;;;19.59;88.64;101361.88;5282083;28;20036;-76
2022/08/05 01:47:19;;;;;;;;;;;;;;;19.77;86.02;101371.75;5282851;28;20040;-77
2022/08/05 01:49:53;;;;;;;11.02;4.53;;;;;;;19.44;86.77;101371.31;5282311;28;20293;-76
2022/08/05 01:52:26;;;;;;;10.98;4.88;;;;;;;19.46;87.22;101364.16;5281798;28;20052;-76
2022/08/05 01:55:01;;;;;;;9.23;4.78;;;;;;;19.56;88.53;101354.94;5281660;28;20480;-77
2022/08/05 01:57:38;;;;;;;10.40;5.25;;;;;;;19.38;88.14;101353.91;5264235;28;20043;-76
2022/08/05 02:00:10;;;;;;;11.15;4.85;;;;;;;19.39;88.28;101339.75;5282723;28;20345;-77
2022/08/05 02:02:51;;;;;;;;;;;;;;;19.68;85.92;101330.63;5282815;28;20067;-76
2022/08/05 02:05:30;;;;;;;11.57;4.90;;;;;;;19.47;88.63;101308.59;5282773;28;19913;-76
2022/08/05 02:08:02;;;;;;;11.60;5.30;;;;;;;19.51;89.36;101285.50;5282129;28;20025;-77
2022/08/05 02:10:41;;;;;;;10.75;5.15;;;;;;;19.48;88.77;101283.00;5282386;28;20349;-76
2022/08/05 02:13:41;;;;;;;9.20;4.60;;;;;;;19.45;88.27;101291.09;5288839;28;20029;-76
2022/08/05 02:16:21;;;;;;;14.77;5.93;;;;;;;19.25;89.31;101303.31;5294007;28;20037;-76
2022/08/05 02:18:58;;;;;;;8.93;4.60;;;;;;;19.23;88.44;101344.81;5265815;28;20033;-77
2022/08/05 02:21:36;;;;;;;13.05;4.70;;;;;;;19.38;88.62;101332.75;5282369;28;20112;-78
2022/08/05 02:24:10;;;;;;;11.40;5.50;;;;;;;19.20;88.35;101286.78;5282089;28;20060;-77
2022/08/05 02:26:47;;;;;;;12.40;5.13;;;;;;;19.22;89.14;101306.06;5264577;28;20072;-77
2022/08/05 02:29:23;;;;;;;9.77;4.80;;;;;;;19.13;88.77;101330.25;5283347;28;20081;-78
2022/08/05 02:31:56;;;;;;;11.45;5.15;;;;;;;19.24;89.09;101338.63;5282982;28;20119;-76
2022/08/05 02:34:30;;;;;;;14.10;5.53;;;;;;;19.21;88.88;101351.94;5282403;28;20031;-77
2022/08/05 02:37:04;;;;;;;10.63;4.72;;;;;;;19.31;89.67;101348.00;5282261;28;20060;-77
2022/08/05 02:39:37;;;;;;;11.88;5.55;;;;;;;19.26;89.05;101347.34;5281920;28;20025;-77
2022/08/05 02:42:10;;;;;;;13.85;5.43;;;;;;;19.11;88.98;101359.38;5281662;28;20036;-77
2022/08/05 02:44:45;;;;;;;12.85;5.05;;;;;;;19.30;90.06;101351.59;5281985;28;20037;-77
2022/08/05 02:47:17;;;;;;;11.38;4.75;;;;;;;19.25;89.52;101339.47;5263892;28;20075;-76
2022/08/05 02:49:49;;;;;;;;;;;;;;;19.51;87.76;101335.75;5282050;28;20117;-76
2022/08/05 02:52:21;;;;;;;11.23;5.80;;;;;;;19.27;89.32;101327.91;5263815;28;20358;-76
2022/08/05 02:54:53;;;;;;;10.88;4.65;;;;;;;19.23;88.91;101317.53;5282857;28;20356;-77
2022/08/05 02:57:26;;;;;;;12.32;5.53;;;;;;;19.25;89.50;101311.25;5283920;28;20120;-77
2022/08/05 02:59:58;;;;;;;10.23;5.97;;;;;;;19.18;89.49;101315.06;5290581;28;20089;-76
2022/08/05 03:02:35;;;;;;;12.27;4.90;;;;;;;18.92;89.06;101319.59;5275078;28;20419;-76
2022/08/05 03:05:09;;;;;;;9.50;5.50;;;;;;;18.93;90.63;101313.41;5283817;28;20333;-76
2022/08/05 03:07:43;;;;;;;10.02;5.45;;;;;;;18.83;89.35;101309.34;5285290;28;20024;-76
2022/08/05 03:10:15;;;;;;;12.15;5.70;;;;;;;18.89;89.50;101303.88;5285668;28;20029;-76
2022/08/05 03:12:48;;;;;;;;;;;;;;;19.10;87.59;101310.09;5285862;28;20494;-76
2022/08/05 03:15:21;;;;;;;8.10;4.88;;;;;;;18.79;89.57;101326.25;5285116;28;19912;-76
2022/08/05 03:17:53;;;;;;;13.00;5.50;;;;;;;18.76;90.73;101336.94;5285079;28;20025;-76
2022/08/05 03:20:25;;;;;;;12.65;5.60;;;;;;;18.74;90.32;101339.66;5285116;28;20082;-80
2022/08/05 03:22:57;;;;;;;9.87;5.23;;;;;;;18.74;90.68;101350.22;5285398;28;20113;-77
2022/08/05 03:25:29;;;;;;;;;;;;;;;18.91;88.55;101343.44;5285374;28;20033;-78
2022/08/05 03:28:02;;;;;;;13.13;5.97;;;;;;;18.83;90.15;101351.63;5285237;28;20323;-76
2022/08/05 03:30:34;;;;;;;10.18;5.45;;;;;;;18.74;90.69;101354.59;5285634;28;20130;-76
2022/08/05 03:33:05;;;;;;;13.05;7.57;;;;;;;18.86;90.30;101353.34;5285427;28;20036;-77
2022/08/05 03:35:37;;;;;;;12.90;6.23;;;;;;;18.75;89.23;101361.63;5285752;28;20025;-76
2022/08/05 03:38:12;;;;;;;12.30;5.70;;;;;;;18.72;90.33;101356.44;5285379;28;20033;-76
2022/08/05 03:40:45;;;;;;;10.20;5.43;;;;;;;18.66;90.44;101354.91;5285539;28;20048;-76
2022/08/05 03:43:16;;;;;;;9.50;5.45;;;;;;;18.69;91.24;101354.81;5285720;28;20029;-76
2022/08/05 03:45:48;;;;;;;12.17;6.17;;;;;;;18.73;91.08;101348.47;5288716;28;20135;-75
2022/08/05 03:48:20;;;;;;;9.80;5.60;;;;;;;18.78;91.95;101348.31;5296226;28;20465;-75
2022/08/05 03:51:03;;;;;;;12.57;5.78;;;;;;;18.72;91.45;101349.41;5285851;28;20051;-74
2022/08/05 03:54:05;;;;;;;13.25;6.05;;;;;;;18.86;90.97;101348.91;5285736;28;20106;-77
2022/08/05 03:56:40;;;;;;;7.63;5.03;;;;;;;18.82;90.71;101342.00;5278990;28;20043;-75
2022/08/05 03:59:43;;;;;;;8.68;5.35;;;;;;;18.77;90.83;101336.00;5284758;28;20116;-75
2022/08/05 04:02:16;;;;;;;13.07;5.63;;;;;;;18.75;90.58;101336.06;5277175;28;20046;-76
2022/08/05 04:04:48;;;;;;;7.95;5.22;;;;;;;18.72;91.72;101332.69;5284570;28;20046;-76
2022/08/05 04:07:21;;;;;;;9.67;5.73;;;;;;;18.74;88.82;101330.84;5284408;28;20036;-76
2022/08/05 04:09:53;;;;;;;9.63;5.55;;;;;;;18.61;90.99;101332.22;5266166;28;20036;-76
2022/08/05 04:12:25;;;;;;;10.07;5.22;;;;;;;18.53;91.66;101325.47;5283987;28;20074;-76
2022/08/05 04:14:57;;;;;;;10.40;5.32;;;;;;;18.54;92.16;101326.31;5284418;28;20369;-76
2022/08/05 04:17:28;;;;;;;;;;;;;;;18.74;90.00;101326.44;5284400;28;20120;-76
2022/08/05 04:20:00;;;;;;;8.73;5.70;;;;;;;18.51;91.17;101327.28;5284382;28;20431;-76
2022/08/05 04:22:31;;;;;;;8.67;5.53;;;;;;;18.47;91.31;101335.41;5284785;28;20039;-76
2022/08/05 04:25:03;;;;;;;13.97;6.83;;;;;;;18.37;91.69;101337.50;5284073;28;20267;-76
2022/08/05 04:27:34;;;;;;;12.10;6.30;;;;;;;18.43;92.79;101334.63;5284123;28;20036;-76
2022/08/05 04:30:07;;;;;;;9.43;5.30;;;;;;;18.37;92.43;101325.19;5284039;28;20037;-76
2022/08/05 04:32:39;;;;;;;12.65;6.32;;;;;;;18.28;92.21;101328.16;5265846;28;20403;-75
2022/08/05 04:35:10;;;;;;;10.03;5.97;;;;;;;18.43;92.33;101342.56;5284184;28;20047;-75
2022/08/05 04:37:41;;;;;;;12.60;6.30;;;;;;;18.35;92.56;101336.69;5283997;28;20047;-76
2022/08/05 04:40:13;;;;;;;9.43;6.00;;;;;;;18.34;92.57;101351.69;5284023;28;20072;-76
2022/08/05 04:42:44;;;;;;;11.70;6.07;;;;;;;18.32;93.26;101353.53;5283676;28;20033;-76
2022/08/05 04:45:16;;;;;;;15.10;6.67;;;;;;;18.28;92.49;101356.31;5266468;28;20444;-78
2022/08/05 04:47:47;;;;;;;11.67;6.20;;;;;;;18.32;93.43;101358.81;5283962;28;20051;-77
2022/08/05 04:50:18;;;;;;;8.40;5.87;;;;;;;18.28;93.05;101351.91;5249046;28;20033;-78
2022/08/05 04:52:50;;;;;;;11.60;6.60;;;;;;;18.39;93.10;101352.38;5283069;28;20056;-77
2022/08/05 04:55:21;;;;;;;11.47;6.77;;;;;;;18.34;92.38;101361.38;5283715;28;20101;-78
2022/08/05 04:57:52;;;;;;;17.23;6.60;;;;;;;18.25;92.01;101354.66;5283715;28;20486;-78
2022/08/05 05:00:24;;;;;;;11.13;6.27;;;;;;;18.31;92.76;101350.94;5283018;28;20040;-78
2022/08/05 05:02:55;;;;;;;15.07;6.23;;;;;;;18.25;92.45;101356.44;5283387;28;20387;-78
2022/08/05 05:05:27;;;;;;;10.47;5.63;;;;;;;18.27;91.89;101359.88;5283588;28;20043;-78
2022/08/05 05:08:04;;;;;;;8.27;6.35;;;;;;;18.33;93.39;101357.00;5283331;28;20101;-78
2022/08/05 05:10:45;;;;;;;14.10;7.18;;;;;;;18.36;92.68;101357.75;5283127;28;20035;-78
2022/08/05 05:13:22;;;;;;;9.38;6.55;;;;;;;18.45;92.55;101364.50;5284111;28;20020;-78
2022/08/05 05:15:53;;;;;;;11.35;6.00;;;;;;;18.47;91.16;101356.53;5286971;28;20029;-79
2022/08/05 05:18:25;;;;;;;10.37;6.37;;;;;;;18.59;92.04;101359.56;5295704;28;20586;-79
2022/08/05 05:20:56;;;;;;;12.43;6.33;;;;;;;18.61;91.01;101362.13;5290669;28;20047;-79
2022/08/05 05:23:28;;;;;;;12.70;8.23;;;;;;;18.62;90.98;101360.38;5286015;28;20035;-79
2022/08/05 05:25:59;;;;;;;11.93;6.37;;;;;;;18.48;91.04;101359.13;5283256;28;20116;-79
2022/08/05 05:28:31;;;;;;;15.60;6.63;;;;;;;18.41;90.56;101365.50;5283685;28;20047;-79
2022/08/05 05:31:02;;;;;;;9.73;6.43;;;;;;;18.43;91.76;101371.59;5265570;28;20029;-78
2022/08/05 05:33:34;;;;;;;8.33;6.43;;;;;;;18.37;91.51;101364.78;5283109;28;20042;-79
2022/08/05 05:36:05;;;;;;;13.93;7.33;;;;;;;18.34;90.89;101377.22;5265278;28;20086;-79
2022/08/05 05:38:37;;;;;;;14.13;7.43;;;;;;;18.30;91.24;101379.09;5283028;28;20036;-78
2022/08/05 05:41:08;;;;;;;10.90;6.40;;;;;;;18.31;92.13;101383.47;5264941;28;20526;-79
2022/08/05 05:43:39;;;;;;;11.07;6.07;;;;;;;18.26;91.28;101387.16;5283236;28;20043;-78
2022/08/05 05:46:11;;;;;;;11.70;5.83;;;;;;;18.23;91.91;101390.78;5248773;28;20032;-78
2022/08/05 05:48:43;;;;;;;10.43;5.73;;;;;;;18.15;91.63;101385.78;5283382;28;20029;-79
2022/08/05 05:51:19;;;;;;;11.25;5.50;;;;;;;18.03;91.91;101386.19;5282716;28;20048;-78
2022/08/05 05:53:52;;;;;;;12.80;6.13;;;;;;;18.02;92.60;101387.97;5283280;28;20047;-79
2022/08/05 05:56:23;;;;;;;14.77;6.32;;;;;;;18.08;92.86;101400.13;5283537;28;20031;-79
2022/08/05 05:58:55;;;;;;;8.93;5.03;;;;;;;18.21;92.97;101404.03;5282659;28;20119;-79
2022/08/05 06:01:26;;;;;;;11.13;4.90;;;;;;;18.18;91.77;101400.66;5283577;28;20387;-78
2022/08/05 06:03:57;;;;;;;12.37;5.37;;;;;;;18.28;92.02;101404.69;5268402;28;20090;-76
2022/08/05 06:06:29;;;;;;;11.27;4.73;;;;;;;18.23;91.54;101402.19;5282045;28;20028;-77
2022/08/05 06:09:04;;;;;;;8.97;4.07;;;;;;;18.31;92.37;101409.00;5282861;28;20068;-77
2022/08/05 06:11:35;;;;;;;8.48;4.72;;;;;;;18.38;91.06;101402.56;5283335;28;20153;-78
2022/08/05 06:14:07;;;;;;;6.27;4.20;;;;;;;18.47;90.35;101402.25;5284496;28;20042;-79
2022/08/05 06:16:38;;;;;;;10.13;4.37;;;;;;;18.51;90.77;101403.84;5267066;28;20084;-78
2022/08/05 06:19:10;;;;;;;10.90;5.17;;;;;;;18.55;90.41;101408.13;5285233;28;20067;-77
2022/08/05 06:21:41;;;;;;;9.70;5.00;;;;;;;18.48;90.04;101403.09;5282455;28;20032;-78
2022/08/05 06:24:12;;;;;;;8.87;4.70;;;;;;;18.47;89.94;101406.69;5281942;28;20024;-78
2022/08/05 06:26:44;;;;;;;9.93;4.37;;;;;;;18.56;89.72;101407.22;5281850;28;20052;-78
2022/08/05 06:29:15;;;;;;;10.53;4.30;;;;;;;18.57;89.14;101411.56;5282065;28;20040;-77
2022/08/05 06:31:47;;;;;;;9.57;4.30;;;;;;;18.52;88.69;101413.50;5263552;28;20021;-78
2022/08/05 06:34:18;;;;;;;8.70;3.93;;;;;;;18.71;89.51;101413.69;5281951;28;20127;-78
2022/08/05 06:36:49;;;;;;;8.63;4.47;;;;;;;18.73;88.33;101421.56;5281938;28;20028;-77
2022/08/05 06:39:21;;;;;;;8.17;4.03;;;;;;;18.82;87.11;101417.72;5263585;28;20060;-77
2022/08/05 06:41:52;;;;;;;11.00;4.17;;;;;;;18.97;87.03;101425.09;5250591;28;20036;-78
2022/08/05 06:44:23;;;;;;;9.43;3.47;;;;;;;19.02;85.22;101430.22;5285661;28;20036;-78
2022/08/05 06:46:56;;;;;;;8.97;3.97;;;;;;;19.06;85.75;101431.81;5286168;28;20028;-78
2022/08/05 06:49:27;;;;;;;;;;;;;;;19.41;85.16;101433.09;5287736;28;20050;-79
2022/08/05 06:51:58;;;;;;;9.82;4.47;;;;;;;19.23;85.48;101442.59;5288661;28;20347;-79
2022/08/05 06:54:30;;;;;;;12.53;4.57;;;;;;;19.27;85.34;101448.63;5254405;28;20024;-79
2022/08/05 06:57:01;;;;;;;6.60;3.53;;;;;;;19.30;84.00;101459.09;5269900;28;20074;-78
2022/08/05 06:59:33;;;;;;;11.77;4.90;;;;;;;19.28;83.70;101458.28;5286178;28;20035;-79
2022/08/05 07:02:05;;;;;;;12.93;4.87;;;;;;;19.33;84.34;101458.13;5285583;28;20032;-79
2022/08/05 07:04:36;;;;;;;8.57;3.97;;;;;;;19.44;83.73;101466.50;5267630;28;20532;-79
2022/08/05 07:07:08;;;;;;;9.57;5.00;;;;;;;19.52;82.75;101458.25;5267676;28;20028;-79
2022/08/05 07:09:39;;;;;;;13.63;4.60;;;;;;;19.67;83.69;101463.81;5285460;28;20047;-79
2022/08/05 07:16:48;;;;;;;7.43;3.63;;;;;;;19.81;84.18;101459.75;5285274;28;20025;-79
2022/08/05 07:17:55;;;;;;;11.27;4.65;;;;;;;19.98;81.31;101465.22;5285703;28;20041;-79
2022/08/05 07:20:26;;;;;;;8.00;3.67;;;;;;;20.16;81.56;101468.88;5285634;28;20464;-79
2022/08/05 07:22:58;;;;;;;8.10;3.83;;;;;;;20.26;80.13;101471.16;5285756;28;20383;-79
2022/08/05 07:25:29;;;;;;;9.37;3.80;;;;;;;20.47;80.31;101472.00;5285117;28;20383;-79
2022/08/05 07:28:01;;;;;;;10.97;3.60;;;;;;;20.81;80.36;101478.50;5285425;28;20115;-79
2022/08/05 07:30:33;;;;;;;10.87;4.13;;;;;;;20.88;77.94;101485.22;5267231;28;20083;-79
2022/08/05 07:33:08;;;;;;;8.68;4.15;;;;;;;20.78;74.60;101492.75;5267240;28;20371;-79
2022/08/05 07:35:40;;;;;;;9.05;3.88;;;;;;;20.59;76.09;101488.22;5267099;28;20033;-78
2022/08/05 07:38:11;;;;;;;8.20;3.30;;;;;;;20.65;77.27;101494.22;5284908;28;20028;-78
2022/08/05 07:40:43;;;;;;;9.40;3.93;;;;;;;20.84;77.32;101496.91;5284842;28;20131;-78
2022/08/05 07:43:15;;;;;;;9.80;3.50;;;;;;;20.87;74.89;101494.97;5284847;28;20154;-78
2022/08/05 07:45:46;;;;;;;8.90;3.50;;;;;;;20.84;74.37;101491.63;5284980;28;20226;-78
2022/08/05 07:48:17;;;;;;;8.47;4.20;;;;;;;20.93;74.05;101499.16;5284537;28;20529;-78
2022/08/05 07:50:49;;;;;;;9.80;3.97;;;;;;;20.75;74.94;101498.16;5284307;28;20499;-78
2022/08/05 07:53:20;;;;;;;9.23;3.07;;;;;;;20.70;73.95;101501.03;5283512;28;20120;-79
2022/08/05 07:55:53;;;;;;;8.20;3.43;;;;;;;20.59;75.43;101508.53;5285452;28;20025;-79
2022/08/05 07:58:24;;;;;;;;;;;;;;;20.83;75.14;101506.63;5284566;28;20060;-79
2022/08/05 08:00:55;;;;;;;8.33;3.03;;;;;;;20.34;74.73;101509.59;5266862;28;19967;-79
2022/08/05 08:03:27;;;;;;;11.40;3.53;;;;;;;20.39;75.64;101507.63;5284739;28;20033;-79
2022/08/05 08:05:58;;;;;;;10.83;3.33;;;;;;;20.37;72.92;101514.78;5285880;28;20074;-79
2022/08/05 08:08:30;;;;;;;7.23;3.40;;;;;;;20.38;73.85;101513.84;5284925;28;20164;-79
2022/08/05 08:11:01;;;;;;;7.20;3.60;;;;;;;20.54;74.47;101518.47;5284724;28;20060;-78
2022/08/05 08:13:32;;;;;;;9.33;3.90;;;;;;;20.53;73.27;101522.94;5284867;28;20094;-78
2022/08/05 08:16:04;;;;;;;7.37;3.20;;;;;;;20.66;74.02;101528.59;5284875;28;20033;-79
2022/08/05 08:18:35;;;;;;;7.97;3.07;;;;;;;21.04;72.42;101523.41;5287320;28;20095;-79
2022/08/05 08:21:06;;;;;;;8.07;3.33;;;;;;;21.17;69.46;101531.66;5287439;28;20036;-79
2022/08/05 08:23:38;;;;;;;6.63;3.00;;;;;;;21.37;69.21;101535.19;5288002;28;20365;-78
2022/08/05 08:26:09;;;;;;;5.97;2.97;;;;;;;21.46;68.25;101542.69;5290037;28;20036;-78
2022/08/05 08:28:41;;;;;;;7.20;2.47;;;;;;;21.64;66.40;101548.97;5252812;28;20039;-79
2022/08/05 08:31:12;;;;;;;7.97;2.80;;;;;;;21.58;66.00;101546.59;5285658;28;20392;-79
2022/08/05 08:33:44;;;;;;;5.17;2.53;;;;;;;21.85;65.30;101555.91;5284332;28;20042;-79
2022/08/05 08:36:16;;;;;;;;;;;;;;;22.60;67.50;101550.47;5284539;28;20032;-79
2022/08/05 08:38:47;;;;;;;6.97;2.70;;;;;;;22.20;63.77;101555.09;5283625;28;19919;-79
2022/08/05 08:41:21;;;;;;;8.33;3.03;;;;;;;22.22;63.69;101554.13;5283617;28;20571;-79
2022/08/05 08:43:54;;;;;;;4.13;2.42;;;;;;;22.02;64.10;101563.06;5283365;28;20032;-79
2022/08/05 08:46:29;;;;;;;7.90;2.60;;;;;;;22.13;63.77;101569.63;5283930;28;20028;-79
2022/08/05 08:49:02;;;;;;;6.47;2.50;;;;;;;22.07;63.68;101562.81;5265740;28;20028;-79
2022/08/05 08:51:36;;;;;;;6.15;2.67;;;;;;;22.16;64.36;101577.47;5265244;28;20059;-80
2022/08/05 08:54:09;;;;;;;8.05;2.97;;;;;;;22.45;64.90;101576.03;5283561;28;20354;-79
2022/08/05 08:56:41;;;;;;;5.75;2.17;;;;;;;22.73;65.23;101580.81;5283581;28;20037;-79
2022/08/05 08:59:12;;;;;;;5.82;2.28;;;;;;;22.95;60.96;101585.88;5283583;28;20033;-80
2022/08/05 09:01:44;;;;;;;8.13;2.73;;;;;;;23.07;61.33;101586.16;5283279;28;20032;-79
2022/08/05 09:04:16;;;;;;;6.88;2.28;;;;;;;23.35;66.78;101590.06;5282909;28;20081;-79
2022/08/05 09:06:48;;;;;;;7.20;2.20;;;;;;;23.47;60.40;101590.25;5283571;28;20028;-79
2022/08/05 09:09:19;;;;;;;14.40;3.67;;;;;;;23.45;63.20;101592.13;5265183;28;20032;-79
2022/08/05 09:11:50;;;;;;;8.20;2.80;;;;;;;23.15;58.41;101594.63;5283852;28;20033;-78
2022/08/05 09:14:22;;;;;;;5.37;2.10;;;;;;;22.84;57.88;101593.53;5253217;28;20079;-79
2022/08/05 09:16:54;;;;;;;4.43;2.13;;;;;;;22.80;58.28;101599.97;5288026;28;20072;-78
2022/08/05 09:19:25;;;;;;;8.50;2.40;;;;;;;22.79;58.79;101597.38;5283362;28;20029;-79
2022/08/05 09:21:57;;;;;;;4.55;1.98;;;;;;;22.94;59.01;101602.78;5264919;28;20758;-79
2022/08/05 09:24:28;;;;;;;6.40;2.10;;;;;;;22.83;60.60;101598.94;5248393;28;20040;-79
2022/08/05 09:26:59;;;;;;;4.13;1.83;;;;;;;22.45;62.12;101599.09;5283343;28;20029;-79
2022/08/05 09:29:44;;;;;;;5.23;2.20;;;;;;;22.06;63.11;101614.22;5282804;28;20472;-79
2022/08/05 09:32:18;;;;;;;3.88;2.05;;;;;;;21.52;63.92;101607.91;5282744;28;20111;-79
2022/08/05 09:34:52;;;;;;;4.07;2.00;;;;;;;21.04;63.60;101621.47;5282683;28;20035;-79
2022/08/05 09:37:26;;;;;;;3.38;1.77;;;;;;;20.86;67.10;101619.59;5265025;28;20024;-77
2022/08/05 09:39:57;;;;;;;6.00;2.30;;;;;;;20.80;66.01;101625.16;5282761;28;20034;-78
2022/08/05 09:42:39;;;;;;;6.33;2.50;;;;;;;21.03;66.53;101618.88;5282821;28;20032;-76
2022/08/05 09:45:11;;;;;;;4.47;2.40;;;;;;;21.60;69.03;101629.63;5282942;28;20032;-77
2022/08/05 09:47:42;;;;;;;5.85;2.10;;;;;;;21.73;65.70;101628.13;5282922;28;20138;-76
2022/08/05 09:50:18;;;;;;;5.37;1.80;;;;;;;22.46;67.33;101622.94;5283230;28;20043;-76
2022/08/05 09:52:56;;;;;;;4.22;1.80;;;;;;;23.46;60.44;101625.78;5284648;28;20048;-76
2022/08/05 09:55:34;;;;;;;5.97;1.95;;;;;;;24.39;55.94;101626.88;5284903;28;20447;-76
2022/08/05 09:58:11;;;;;;;4.22;1.85;;;;;;;24.91;52.89;101627.44;5287010;28;20032;-77
2022/08/05 10:01:03;;;;;;;6.97;1.90;;;;;;;25.26;52.81;101622.63;5286862;28;20036;-77
2022/08/05 10:03:34;;;;;;;4.95;1.80;;;;;;;25.27;56.22;101626.16;5285279;28;20432;-76
2022/08/05 10:06:08;;;;;;;3.67;1.73;;;;;;;24.52;51.90;101639.47;5282640;28;20046;-76
2022/08/05 10:08:39;;;;;;;5.85;1.42;;;;;;;24.03;54.61;101637.81;5264853;28;20032;-77
2022/08/05 10:11:16;;;;;;;4.53;1.33;;;;;;;23.52;49.92;101639.69;5282837;28;20153;-77
2022/08/05 10:13:47;;;;;;;5.40;1.50;;;;;;;23.41;48.96;101649.13;5264308;28;20274;-77
2022/08/05 10:16:35;;;;;;;3.40;1.30;;;;;;;25.34;50.15;101643.56;5285466;28;20025;-77
2022/08/05 10:19:06;;;;;;;4.05;1.35;;;;;;;27.04;44.69;101646.78;5268264;28;20086;-77
2022/08/05 10:21:38;;;;;;;2.35;0.98;;;;;;;28.28;40.01;101646.94;5286778;28;20044;-77
2022/08/05 10:24:13;;;;;;;1.85;1.08;;;;;;;27.52;38.30;101639.97;5287136;28;20043;-77
2022/08/05 10:26:47;;;;;;;2.10;0.90;;;;;;;26.62;36.71;101637.19;5286191;28;20359;-78
2022/08/05 10:29:22;;;;;;;2.15;1.02;;;;;;;25.45;40.31;101651.75;5268425;28;20115;-78
2022/08/05 10:31:55;;;;;;;3.55;1.20;;;;;;;25.26;42.09;101659.13;5286345;28;20104;-77
2022/08/05 10:34:26;;;;;;;3.80;1.23;;;;;;;25.14;41.08;101652.72;5285988;28;20044;-77
2022/08/05 10:36:58;;;;;;;2.78;1.10;;;;;;;25.23;39.20;101648.63;5285853;28;20548;-77
2022/08/05 10:39:34;;;;;;;2.85;1.38;;;;;;;25.27;40.26;101650.16;5286215;28;20035;-77
2022/08/05 10:42:17;;;;;;;3.75;1.20;;;;;;;25.45;41.86;101651.75;5286402;28;20036;-77
2022/08/05 10:44:55;;;;;;;3.60;1.40;;;;;;;25.45;43.25;101654.41;5286401;28;20067;-77
2022/08/05 10:47:32;;;;;;;3.40;1.30;;;;;;;25.70;41.31;101660.88;5286614;28;20032;-77
2022/08/05 10:50:12;;;;;;;3.20;1.15;;;;;;;25.68;39.20;101660.13;5286162;28;20384;-78
2022/08/05 10:52:55;;;;;;;2.55;1.17;;;;;;;25.99;38.76;101666.22;5285753;28;20144;-77
2022/08/05 10:55:29;;;;;;;2.40;1.00;;;;;;;26.12;38.61;101667.13;5286429;28;20044;-77
2022/08/05 10:58:10;;;;;;;3.67;1.15;;;;;;;26.15;38.94;101674.13;5285700;28;20047;-77
2022/08/05 11:00:45;;;;;;;2.63;0.93;;;;;;;25.98;39.75;101668.00;5285868;28;20052;-77
2022/08/05 11:03:17;;;;;;;2.00;1.08;;;;;;;26.11;38.87;101672.59;5285596;28;20036;-77
2022/08/05 11:06:12;;;;;;;3.25;1.08;;;;;;;26.45;40.04;101670.38;5285910;28;20047;-77
2022/08/05 11:09:21;;;;;;;2.65;0.80;;;;;;;26.19;37.76;101672.94;5286293;28;20056;-77
2022/08/05 11:11:55;;;;;;;5.38;1.17;;;;;;;25.87;37.04;101681.16;5285742;28;20123;-77
2022/08/05 11:14:37;;;;;;;4.03;1.00;;;;;;;25.72;35.26;101684.81;5286004;28;20040;-77
2022/08/05 11:17:33;;;;;;;2.08;0.75;;;;;;;26.95;37.18;101687.53;5286279;28;20459;-78
2022/08/05 11:20:06;;;;;;;2.20;0.90;;;;;;;26.93;34.40;101682.34;5285774;28;20025;-77
2022/08/05 11:22:48;;;;;;;4.85;1.38;;;;;;;26.59;35.20;101696.22;5286196;28;20040;-78
2022/08/05 11:25:31;;;;;;;2.28;0.82;;;;;;;26.71;34.49;101692.72;5286644;28;20039;-78
2022/08/05 11:28:10;;;;;;;2.40;0.90;;;;;;;27.68;35.32;101695.97;5290349;28;20087;-77
2022/08/05 11:33:29;;;;;;;2.35;1.08;;;;;;;27.64;32.52;101696.19;5287763;28;20127;-77
2022/08/05 11:36:02;;;;;;;5.68;1.10;;;;;;;27.58;36.08;101695.75;5286156;28;20380;-76
2022/08/05 11:38:43;;;;;;;3.90;1.63;;;;;;;28.77;33.83;101697.91;5285396;28;20111;-78
2022/08/05 11:41:21;;;;;;;3.15;1.40;;;;;;;29.97;30.03;101693.97;5285284;28;20384;-77
2022/08/05 11:44:01;;;;;;;2.45;0.95;;;;;;;30.59;30.97;101705.09;5285114;28;20039;-78
2022/08/05 11:46:37;;;;;;;4.10;1.13;;;;;;;29.91;30.73;101706.06;5285621;28;20056;-78
2022/08/05 11:49:13;;;;;;;4.03;0.90;;;;;;;27.99;32.85;101721.47;5285095;28;20028;-77
2022/08/05 11:51:47;;;;;;;3.78;1.42;;;;;;;26.55;34.63;101719.63;5285150;28;20053;-78
2022/08/05 11:54:38;;;;;;;2.75;1.17;;;;;;;25.96;37.11;101722.47;5285617;28;20059;-78
2022/08/05 11:57:09;;;;;;;3.80;1.48;;;;;;;25.00;38.62;101735.38;5285342;28;20090;-78
2022/08/05 11:59:42;;;;;;;6.25;1.40;;;;;;;24.63;39.78;101737.50;5285330;28;20028;-78
2022/08/05 12:02:13;;;;;;;3.67;1.40;;;;;;;24.81;40.80;101736.47;5284731;28;20036;-78